createdAt,value
2022-10-19T14:25:58.602Z,42.20
2022-10-19T14:28:25.620Z,28.55
2022-10-19T14:31:02.059Z,14.95
2022-10-19T14:33:29.888Z,16.73
2022-10-19T14:35:56.691Z,22.35
2022-10-19T14:38:36.297Z,15.88
2022-10-19T14:41:03.930Z,16.60
2022-10-19T14:43:32.406Z,13.60
2022-10-19T14:46:08.142Z,13.68
2022-10-19T14:48:42.917Z,27.48
2022-10-19T14:51:29.678Z,16.75
2022-10-19T14:54:09.312Z,22.52
2022-10-19T14:56:48.013Z,18.85
2022-10-19T14:59:17.581Z,20.50
2022-10-19T15:01:49.890Z,21.60
2022-10-19T15:04:25.573Z,15.48
2022-10-19T15:06:52.449Z,28.42
2022-10-19T15:09:37.291Z,22.35
2022-10-19T15:12:17.716Z,20.00
2022-10-19T15:14:44.525Z,29.30
2022-10-19T15:17:31.140Z,22.08
2022-10-19T15:20:01.222Z,22.35
2022-10-19T15:22:31.292Z,19.98
2022-10-19T15:25:07.051Z,21.87
2022-10-19T15:27:38.153Z,24.10
2022-10-19T15:30:28.525Z,25.38
2022-10-19T15:33:03.369Z,20.30
2022-10-19T15:35:35.002Z,20.13
2022-10-19T15:38:19.280Z,23.17
2022-10-19T15:40:46.246Z,22.30
2022-10-19T15:43:34.188Z,21.33
2022-10-19T15:46:02.381Z,25.52
2022-10-19T15:48:42.996Z,30.42
2022-10-19T15:51:24.874Z,18.70
2022-10-19T15:54:02.181Z,17.95
2022-10-19T15:56:30.590Z,19.70
2022-10-19T15:58:58.734Z,16.40
2022-10-19T16:01:30.166Z,17.67
2022-10-19T16:03:57.244Z,17.65
2022-10-19T16:06:28.854Z,19.70
2022-10-19T16:08:55.908Z,20.33
2022-10-19T16:11:25.914Z,16.13
2022-10-19T16:13:52.934Z,18.75
2022-10-19T16:16:28.789Z,20.30
2022-10-19T16:18:55.740Z,17.58
2022-10-19T16:21:27.822Z,16.73
2022-10-19T16:23:54.786Z,18.33
2022-10-19T16:26:22.050Z,19.40
2022-10-19T16:28:49.100Z,25.08
2022-10-19T16:31:16.070Z,28.35
2022-10-19T16:33:42.890Z,29.23
2022-10-19T16:36:09.775Z,34.17
2022-10-19T16:38:36.899Z,34.90
2022-10-19T16:41:05.480Z,34.85
2022-10-19T16:43:32.293Z,42.42
2022-10-19T16:45:59.246Z,48.35
2022-10-19T16:48:26.539Z,48.63
2022-10-19T16:51:16.155Z,51.38
2022-10-19T16:53:43.006Z,42.55
2022-10-19T16:56:11.136Z,42.22
2022-10-19T16:58:38.161Z,47.55
2022-10-19T17:01:12.825Z,49.15
